sensor_id;sensor_type;location;lat;lon;timestamp;pressure;altitude;pressure_sealevel;temperature;humidity
75650;BME280;64245;51.282;22.494;2023-04-01T00:02:07;97338.97;;;7.12;100.00
75650;BME280;64245;51.282;22.494;2023-04-01T00:04:33;97349.31;;;7.15;100.00
75650;BME280;64245;51.282;22.494;2023-04-01T00:06:58;97357.16;;;7.16;100.00
75650;BME280;64245;51.282;22.494;2023-04-01T00:09:25;97365.88;;;7.26;100.00
75650;BME280;64245;51.282;22.494;2023-04-01T00:11:51;97359.03;;;7.08;100.00
75650;BME280;64245;51.282;22.494;2023-04-01T00:14:17;97355.69;;;7.06;100.00
75650;BME280;64245;51.282;22.494;2023-04-01T00:16:42;97344.34;;;6.87;100.00
75650;BME280;64245;51.282;22.494;2023-04-01T00:19:08;97356.88;;;6.79;100.00
75650;BME280;64245;51.282;22.494;2023-04-01T00:21:34;97349.19;;;6.76;100.00
75650;BME280;64245;51.282;22.494;2023-04-01T00:24:00;97351.72;;;6.61;100.00
75650;BME280;64245;51.282;22.494;2023-04-01T00:26:26;97349.03;;;6.61;100.00
75650;BME280;64245;51.282;22.494;2023-04-01T00:28:52;97332.00;;;6.54;100.00
75650;BME280;64245;51.282;22.494;2023-04-01T00:31:17;97340.84;;;6.46;100.00
75650;BME280;64245;51.282;22.494;2023-04-01T00:33:43;97347.69;;;6.41;100.00
75650;BME280;64245;51.282;22.494;2023-04-01T00:36:14;97349.69;;;6.31;100.00
75650;BME280;64245;51.282;22.494;2023-04-01T00:38:41;97347.50;;;6.26;100.00
75650;BME280;64245;51.282;22.494;2023-04-01T00:41:08;97347.66;;;6.16;100.00
75650;BME280;64245;51.282;22.494;2023-04-01T00:43:40;97339.47;;;6.18;100.00
75650;BME280;64245;51.282;22.494;2023-04-01T00:46:06;97333.63;;;6.06;100.00
75650;BME280;64245;51.282;22.494;2023-04-01T00:48:37;97337.50;;;6.28;100.00
75650;BME280;64245;51.282;22.494;2023-04-01T00:51:06;97348.03;;;6.38;100.00
75650;BME280;64245;51.282;22.494;2023-04-01T00:53:34;97339.34;;;6.28;100.00
75650;BME280;64245;51.282;22.494;2023-04-01T00:56:10;97343.53;;;6.30;100.00
75650;BME280;64245;51.282;22.494;2023-04-01T00:58:41;97336.00;;;6.26;100.00
75650;BME280;64245;51.282;22.494;2023-04-01T01:01:08;97315.94;;;6.13;100.00
75650;BME280;64245;51.282;22.494;2023-04-01T01:03:35;97317.44;;;6.24;100.00
75650;BME280;64245;51.282;22.494;2023-04-01T01:08:58;97337.19;;;6.31;100.00
75650;BME280;64245;51.282;22.494;2023-04-01T01:11:36;97317.94;;;6.28;100.00
75650;BME280;64245;51.282;22.494;2023-04-01T01:16:59;97308.59;;;6.15;100.00
75650;BME280;64245;51.282;22.494;2023-04-01T01:19:33;97311.44;;;6.38;100.00
75650;BME280;64245;51.282;22.494;2023-04-01T01:27:11;97307.09;;;6.29;100.00
75650;BME280;64245;51.282;22.494;2023-04-01T01:29:51;97303.25;;;6.15;100.00
75650;BME280;64245;51.282;22.494;2023-04-01T01:38:03;97283.38;;;6.26;100.00
75650;BME280;64245;51.282;22.494;2023-04-01T01:40:32;97297.06;;;6.39;100.00
75650;BME280;64245;51.282;22.494;2023-04-01T01:43:03;97301.06;;;6.35;100.00
75650;BME280;64245;51.282;22.494;2023-04-01T01:45:33;97297.91;;;6.32;100.00
75650;BME280;64245;51.282;22.494;2023-04-01T01:48:02;97295.91;;;6.34;100.00
75650;BME280;64245;51.282;22.494;2023-04-01T01:50:29;97293.22;;;6.42;100.00
75650;BME280;64245;51.282;22.494;2023-04-01T01:53:07;97287.88;;;6.42;100.00
75650;BME280;64245;51.282;22.494;2023-04-01T01:55:39;97279.88;;;6.34;100.00
75650;BME280;64245;51.282;22.494;2023-04-01T01:58:14;97292.38;;;6.41;100.00
75650;BME280;64245;51.282;22.494;2023-04-01T02:00:44;97288.19;;;6.55;100.00
75650;BME280;64245;51.282;22.494;2023-04-01T02:03:13;97285.03;;;6.51;100.00
75650;BME280;64245;51.282;22.494;2023-04-01T02:05:39;97283.03;;;6.45;100.00
75650;BME280;64245;51.282;22.494;2023-04-01T02:08:16;97283.38;;;6.50;100.00
75650;BME280;64245;51.282;22.494;2023-04-01T02:10:55;97272.16;;;6.47;100.00
75650;BME280;64245;51.282;22.494;2023-04-01T02:13:29;97257.78;;;6.48;100.00
75650;BME280;64245;51.282;22.494;2023-04-01T02:16:00;97274.50;;;6.66;100.00
75650;BME280;64245;51.282;22.494;2023-04-01T02:18:29;97278.97;;;6.74;100.00
75650;BME280;64245;51.282;22.494;2023-04-01T02:20:57;97262.44;;;6.70;100.00
75650;BME280;64245;51.282;22.494;2023-04-01T02:23:23;97272.16;;;6.71;100.00
75650;BME280;64245;51.282;22.494;2023-04-01T02:25:49;97278.50;;;6.70;100.00
75650;BME280;64245;51.282;22.494;2023-04-01T02:28:17;97278.34;;;6.72;100.00
75650;BME280;64245;51.282;22.494;2023-04-01T02:30:46;97261.09;;;6.74;100.00
75650;BME280;64245;51.282;22.494;2023-04-01T02:33:13;97248.03;;;6.79;100.00
75650;BME280;64245;51.282;22.494;2023-04-01T02:35:39;97260.22;;;6.90;100.00
75650;BME280;64245;51.282;22.494;2023-04-01T02:38:05;97256.56;;;6.91;100.00
75650;BME280;64245;51.282;22.494;2023-04-01T02:40:47;97248.75;;;6.73;100.00
75650;BME280;64245;51.282;22.494;2023-04-01T02:43:13;97263.09;;;6.88;100.00
75650;BME280;64245;51.282;22.494;2023-04-01T02:45:39;97261.41;;;6.87;100.00
75650;BME280;64245;51.282;22.494;2023-04-01T02:48:05;97251.41;;;6.73;100.00
75650;BME280;64245;51.282;22.494;2023-04-01T02:50:31;97255.22;;;6.79;100.00
75650;BME280;64245;51.282;22.494;2023-04-01T02:52:56;97247.75;;;6.58;100.00
75650;BME280;64245;51.282;22.494;2023-04-01T02:55:22;97253.94;;;6.67;100.00
75650;BME280;64245;51.282;22.494;2023-04-01T02:57:47;97261.13;;;6.66;100.00
75650;BME280;64245;51.282;22.494;2023-04-01T03:00:14;97261.97;;;6.50;100.00
75650;BME280;64245;51.282;22.494;2023-04-01T03:02:40;97281.84;;;6.72;100.00
75650;BME280;64245;51.282;22.494;2023-04-01T03:05:06;97268.63;;;6.71;100.00
75650;BME280;64245;51.282;22.494;2023-04-01T03:07:32;97263.28;;;6.71;100.00
75650;BME280;64245;51.282;22.494;2023-04-01T03:09:58;97267.63;;;6.55;100.00
75650;BME280;64245;51.282;22.494;2023-04-01T03:12:24;97268.47;;;6.64;100.00
75650;BME280;64245;51.282;22.494;2023-04-01T03:14:49;97277.16;;;6.66;100.00
75650;BME280;64245;51.282;22.494;2023-04-01T03:17:15;97267.16;;;6.52;100.00
75650;BME280;64245;51.282;22.494;2023-04-01T03:19:41;97278.69;;;6.52;100.00
75650;BME280;64245;51.282;22.494;2023-04-01T03:22:08;97271.97;;;6.56;100.00
75650;BME280;64245;51.282;22.494;2023-04-01T03:24:35;97283.88;;;6.54;100.00
75650;BME280;64245;51.282;22.494;2023-04-01T03:27:00;97278.50;;;6.62;100.00
75650;BME280;64245;51.282;22.494;2023-04-01T03:29:26;97286.19;;;6.65;100.00
75650;BME280;64245;51.282;22.494;2023-04-01T03:31:52;97292.03;;;6.61;100.00
75650;BME280;64245;51.282;22.494;2023-04-01T03:34:17;97296.06;;;6.65;100.00
75650;BME280;64245;51.282;22.494;2023-04-01T03:36:43;97286.56;;;6.54;100.00
75650;BME280;64245;51.282;22.494;2023-04-01T03:39:09;97293.22;;;6.58;100.00
75650;BME280;64245;51.282;22.494;2023-04-01T03:41:36;97293.56;;;6.47;100.00
75650;BME280;64245;51.282;22.494;2023-04-01T03:44:03;97308.75;;;6.54;100.00
75650;BME280;64245;51.282;22.494;2023-04-01T03:46:29;97295.22;;;6.23;100.00
75650;BME280;64245;51.282;22.494;2023-04-01T03:48:55;97310.59;;;6.46;100.00
75650;BME280;64245;51.282;22.494;2023-04-01T03:51:20;97294.06;;;6.26;100.00
75650;BME280;64245;51.282;22.494;2023-04-01T03:53:46;97308.09;;;6.44;100.00
75650;BME280;64245;51.282;22.494;2023-04-01T03:56:12;97311.44;;;6.46;100.00
75650;BME280;64245;51.282;22.494;2023-04-01T03:58:38;97315.59;;;6.41;100.00
75650;BME280;64245;51.282;22.494;2023-04-01T04:01:16;97306.59;;;6.34;100.00
75650;BME280;64245;51.282;22.494;2023-04-01T04:03:42;97318.13;;;6.50;100.00
75650;BME280;64245;51.282;22.494;2023-04-01T04:06:13;97323.78;;;6.55;100.00
75650;BME280;64245;51.282;22.494;2023-04-01T04:08:39;97311.09;;;6.57;100.00
75650;BME280;64245;51.282;22.494;2023-04-01T04:11:05;97317.13;;;6.51;100.00
75650;BME280;64245;51.282;22.494;2023-04-01T04:13:31;97321.63;;;6.59;100.00
75650;BME280;64245;51.282;22.494;2023-04-01T04:15:58;97319.13;;;6.66;100.00
75650;BME280;64245;51.282;22.494;2023-04-01T04:18:23;97310.25;;;6.65;100.00
75650;BME280;64245;51.282;22.494;2023-04-01T04:20:49;97325.28;;;6.74;100.00
75650;BME280;64245;51.282;22.494;2023-04-01T04:23:17;97319.28;;;6.72;100.00
75650;BME280;64245;51.282;22.494;2023-04-01T04:26:06;97333.97;;;6.76;100.00
75650;BME280;64245;51.282;22.494;2023-04-01T04:28:33;97334.16;;;6.75;100.00
75650;BME280;64245;51.282;22.494;2023-04-01T04:30:59;97332.66;;;6.80;100.00
75650;BME280;64245;51.282;22.494;2023-04-01T04:33:26;97329.63;;;6.75;100.00
75650;BME280;64245;51.282;22.494;2023-04-01T04:35:55;97332.13;;;6.77;100.00
75650;BME280;64245;51.282;22.494;2023-04-01T04:38:21;97316.25;;;6.75;100.00
75650;BME280;64245;51.282;22.494;2023-04-01T04:40:46;97305.06;;;6.80;100.00
75650;BME280;64245;51.282;22.494;2023-04-01T04:43:14;97325.94;;;7.01;100.00
75650;BME280;64245;51.282;22.494;2023-04-01T04:45:40;97317.22;;;6.99;100.00
75650;BME280;64245;51.282;22.494;2023-04-01T04:48:08;97316.94;;;6.85;100.00
75650;BME280;64245;51.282;22.494;2023-04-01T04:50:34;97311.25;;;6.88;100.00
75650;BME280;64245;51.282;22.494;2023-04-01T04:53:00;97320.91;;;6.98;100.00
75650;BME280;64245;51.282;22.494;2023-04-01T04:55:26;97319.25;;;6.97;100.00
75650;BME280;64245;51.282;22.494;2023-04-01T04:57:51;97324.25;;;7.08;100.00
75650;BME280;64245;51.282;22.494;2023-04-01T05:00:17;97323.91;;;7.11;100.00
75650;BME280;64245;51.282;22.494;2023-04-01T05:02:43;97309.03;;;7.08;100.00
75650;BME280;64245;51.282;22.494;2023-04-01T05:05:08;97333.91;;;7.25;100.00
75650;BME280;64245;51.282;22.494;2023-04-01T05:07:34;97332.41;;;7.31;100.00
75650;BME280;64245;51.282;22.494;2023-04-01T05:10:00;97337.38;;;7.34;100.00
75650;BME280;64245;51.282;22.494;2023-04-01T05:12:26;97330.00;;;7.36;100.00
75650;BME280;64245;51.282;22.494;2023-04-01T05:14:51;97328.31;;;7.43;100.00
75650;BME280;64245;51.282;22.494;2023-04-01T05:17:17;97324.47;;;7.45;100.00
75650;BME280;64245;51.282;22.494;2023-04-01T05:19:42;97347.16;;;7.66;99.90
75650;BME280;64245;51.282;22.494;2023-04-01T05:22:08;97339.28;;;7.64;99.29
75650;BME280;64245;51.282;22.494;2023-04-01T05:24:34;97329.59;;;7.55;99.70
75650;BME280;64245;51.282;22.494;2023-04-01T05:27:00;97328.91;;;7.61;100.00
75650;BME280;64245;51.282;22.494;2023-04-01T05:29:26;97332.41;;;7.70;98.93
75650;BME280;64245;51.282;22.494;2023-04-01T05:31:52;97328.50;;;7.80;98.91
75650;BME280;64245;51.282;22.494;2023-04-01T05:34:17;97346.25;;;7.81;98.50
75650;BME280;64245;51.282;22.494;2023-04-01T05:36:44;97346.34;;;7.96;98.47
75650;BME280;64245;51.282;22.494;2023-04-01T05:39:10;97332.16;;;7.87;98.09
75650;BME280;64245;51.282;22.494;2023-04-01T05:41:37;97342.13;;;8.02;97.64
75650;BME280;64245;51.282;22.494;2023-04-01T05:44:03;97337.09;;;7.98;98.03
75650;BME280;64245;51.282;22.494;2023-04-01T05:46:29;97334.59;;;7.97;97.90
75650;BME280;64245;51.282;22.494;2023-04-01T05:48:54;97337.78;;;8.01;97.33
75650;BME280;64245;51.282;22.494;2023-04-01T05:51:21;97326.72;;;7.95;97.58
75650;BME280;64245;51.282;22.494;2023-04-01T05:53:46;97345.47;;;8.04;97.44
75650;BME280;64245;51.282;22.494;2023-04-01T05:56:12;97346.47;;;8.03;96.73
75650;BME280;64245;51.282;22.494;2023-04-01T05:58:38;97355.22;;;7.96;97.09
75650;BME280;64245;51.282;22.494;2023-04-01T06:01:10;97349.66;;;8.06;97.17
75650;BME280;64245;51.282;22.494;2023-04-01T06:03:35;97348.75;;;8.14;96.54
75650;BME280;64245;51.282;22.494;2023-04-01T06:06:02;97351.41;;;8.14;96.38
75650;BME280;64245;51.282;22.494;2023-04-01T06:08:29;97334.19;;;8.08;95.55
75650;BME280;64245;51.282;22.494;2023-04-01T06:14:34;97345.84;;;7.92;97.14
75650;BME280;64245;51.282;22.494;2023-04-01T06:17:39;97346.41;;;7.88;97.74
75650;BME280;64245;51.282;22.494;2023-04-01T06:31:20;97325.97;;;7.48;98.58
75650;BME280;64245;51.282;22.494;2023-04-01T06:33:58;97338.31;;;7.57;98.90
75650;BME280;64245;51.282;22.494;2023-04-01T06:39:38;97353.13;;;7.76;98.66
75650;BME280;64245;51.282;22.494;2023-04-01T06:42:22;97357.22;;;7.94;99.03
75650;BME280;64245;51.282;22.494;2023-04-01T06:47:55;97333.19;;;8.09;96.97
75650;BME280;64245;51.282;22.494;2023-04-01T06:50:58;97339.47;;;8.24;96.43
75650;BME280;64245;51.282;22.494;2023-04-01T06:54:34;97360.13;;;8.47;96.80
75650;BME280;64245;51.282;22.494;2023-04-01T06:56:30;97331.41;;;8.55;94.33
75650;BME280;64245;51.282;22.494;2023-04-01T06:59:04;97349.50;;;8.76;93.17
75650;BME280;64245;51.282;22.494;2023-04-01T07:01:38;97363.13;;;8.89;94.10
75650;BME280;64245;51.282;22.494;2023-04-01T07:04:16;97374.56;;;9.06;92.78
75650;BME280;64245;51.282;22.494;2023-04-01T07:07:19;97369.81;;;8.93;92.59
75650;BME280;64245;51.282;22.494;2023-04-01T07:09:57;97348.31;;;8.79;92.29
75650;BME280;64245;51.282;22.494;2023-04-01T07:15:05;97373.53;;;8.92;92.88
75650;BME280;64245;51.282;22.494;2023-04-01T07:17:39;97363.06;;;8.97;92.08
75650;BME280;64245;51.282;22.494;2023-04-01T07:20:26;97374.94;;;9.03;92.28
75650;BME280;64245;51.282;22.494;2023-04-01T07:23:06;97368.78;;;8.80;92.24
75650;BME280;64245;51.282;22.494;2023-04-01T07:25:38;97379.38;;;8.96;90.31
75650;BME280;64245;51.282;22.494;2023-04-01T07:28:12;97379.50;;;9.17;89.27
75650;BME280;64245;51.282;22.494;2023-04-01T07:30:58;97366.16;;;9.24;89.89
75650;BME280;64245;51.282;22.494;2023-04-01T07:36:18;97381.41;;;9.61;87.26
75650;BME280;64245;51.282;22.494;2023-04-01T07:39:07;97368.34;;;9.73;87.22
75650;BME280;64245;51.282;22.494;2023-04-01T07:41:51;97368.50;;;9.86;87.20
75650;BME280;64245;51.282;22.494;2023-04-01T07:47:16;97377.47;;;10.22;86.65
75650;BME280;64245;51.282;22.494;2023-04-01T07:50:17;97371.97;;;10.30;84.42
75650;BME280;64245;51.282;22.494;2023-04-01T07:52:50;97385.72;;;10.21;84.88
75650;BME280;64245;51.282;22.494;2023-04-01T07:58:09;97392.84;;;10.64;81.46
75650;BME280;64245;51.282;22.494;2023-04-01T08:00:48;97376.13;;;10.69;81.64
75650;BME280;64245;51.282;22.494;2023-04-01T08:03:33;97384.69;;;11.00;81.71
75650;BME280;64245;51.282;22.494;2023-04-01T08:06:19;97380.09;;;10.94;81.16
75650;BME280;64245;51.282;22.494;2023-04-01T08:17:00;97376.31;;;10.89;78.34
75650;BME280;64245;51.282;22.494;2023-04-01T08:22:09;97383.47;;;10.82;79.97
75650;BME280;64245;51.282;22.494;2023-04-01T08:30:04;97378.44;;;10.72;79.43
75650;BME280;64245;51.282;22.494;2023-04-01T08:32:37;97378.47;;;10.79;78.37
75650;BME280;64245;51.282;22.494;2023-04-01T08:35:24;97370.09;;;11.16;79.09
75650;BME280;64245;51.282;22.494;2023-04-01T08:37:55;97377.75;;;11.13;77.82
75650;BME280;64245;51.282;22.494;2023-04-01T08:48:36;97385.03;;;11.19;77.81
75650;BME280;64245;51.282;22.494;2023-04-01T09:00:15;97377.06;;;11.60;74.82
75650;BME280;64245;51.282;22.494;2023-04-01T09:06:29;97376.22;;;11.59;74.44
75650;BME280;64245;51.282;22.494;2023-04-01T09:30:19;97376.94;;;12.70;69.24
75650;BME280;64245;51.282;22.494;2023-04-01T09:36:01;97368.34;;;12.40;68.29
75650;BME280;64245;51.282;22.494;2023-04-01T09:38:30;97385.16;;;12.42;70.05
75650;BME280;64245;51.282;22.494;2023-04-01T09:41:10;97385.22;;;12.62;67.33
75650;BME280;64245;51.282;22.494;2023-04-01T09:49:59;97379.88;;;12.88;65.77
75650;BME280;64245;51.282;22.494;2023-04-01T09:58:42;97395.69;;;12.85;68.13
75650;BME280;64245;51.282;22.494;2023-04-01T10:07:01;97386.56;;;13.32;66.65
75650;BME280;64245;51.282;22.494;2023-04-01T10:20:07;97382.69;;;12.54;68.58
75650;BME280;64245;51.282;22.494;2023-04-01T10:36:43;97402.31;;;12.82;67.34
75650;BME280;64245;51.282;22.494;2023-04-01T10:39:22;97398.38;;;13.11;67.38
75650;BME280;64245;51.282;22.494;2023-04-01T10:45:16;97392.59;;;13.47;64.99
75650;BME280;64245;51.282;22.494;2023-04-01T11:01:27;97386.94;;;12.83;65.46
75650;BME280;64245;51.282;22.494;2023-04-01T11:12:14;97405.22;;;12.80;68.79
75650;BME280;64245;51.282;22.494;2023-04-01T11:18:28;97403.16;;;13.09;66.10
75650;BME280;64245;51.282;22.494;2023-04-01T11:29:48;97383.81;;;12.92;66.21
75650;BME280;64245;51.282;22.494;2023-04-01T11:35:25;97395.88;;;12.96;66.71
75650;BME280;64245;51.282;22.494;2023-04-01T11:38:18;97402.53;;;12.94;65.68
75650;BME280;64245;51.282;22.494;2023-04-01T11:40:56;97413.53;;;12.92;66.43
75650;BME280;64245;51.282;22.494;2023-04-01T11:43:49;97402.97;;;13.04;65.54
75650;BME280;64245;51.282;22.494;2023-04-01T11:46:32;97397.34;;;13.12;67.22
75650;BME280;64245;51.282;22.494;2023-04-01T11:52:06;97409.22;;;13.04;65.34
75650;BME280;64245;51.282;22.494;2023-04-01T12:00:25;97416.34;;;13.25;67.22
75650;BME280;64245;51.282;22.494;2023-04-01T12:06:22;97422.81;;;12.57;67.64
75650;BME280;64245;51.282;22.494;2023-04-01T12:14:11;97447.66;;;10.78;72.82
75650;BME280;64245;51.282;22.494;2023-04-01T12:19:28;97428.66;;;10.29;75.22
75650;BME280;64245;51.282;22.494;2023-04-01T12:24:45;97455.41;;;10.66;75.94
75650;BME280;64245;51.282;22.494;2023-04-01T12:27:38;97448.69;;;10.41;79.39
75650;BME280;64245;51.282;22.494;2023-04-01T12:35:21;97444.63;;;10.66;81.74
75650;BME280;64245;51.282;22.494;2023-04-01T12:38:18;97418.63;;;12.00;75.72
75650;BME280;64245;51.282;22.494;2023-04-01T12:40:58;97419.19;;;13.90;69.74
75650;BME280;64245;51.282;22.494;2023-04-01T12:57:01;97433.78;;;15.29;62.39
75650;BME280;64245;51.282;22.494;2023-04-01T13:10:27;97444.53;;;14.15;59.43
75650;BME280;64245;51.282;22.494;2023-04-01T13:15:52;97442.34;;;13.26;64.19
75650;BME280;64245;51.282;22.494;2023-04-01T13:21:05;97443.78;;;13.48;64.70
75650;BME280;64245;51.282;22.494;2023-04-01T13:23:57;97444.19;;;13.32;62.90
75650;BME280;64245;51.282;22.494;2023-04-01T13:26:36;97447.56;;;12.67;64.82
75650;BME280;64245;51.282;22.494;2023-04-01T13:29:27;97449.03;;;12.69;65.84
75650;BME280;64245;51.282;22.494;2023-04-01T13:43:21;97449.50;;;12.93;67.81
75650;BME280;64245;51.282;22.494;2023-04-01T13:46:16;97449.84;;;12.63;68.59
75650;BME280;64245;51.282;22.494;2023-04-01T13:51:43;97457.75;;;12.65;71.51
75650;BME280;64245;51.282;22.494;2023-04-01T14:02:56;97465.19;;;11.81;75.71
75650;BME280;64245;51.282;22.494;2023-04-01T14:08:26;97477.19;;;11.57;77.33
75650;BME280;64245;51.282;22.494;2023-04-01T14:14:11;97484.88;;;11.32;77.72
75650;BME280;64245;51.282;22.494;2023-04-01T14:31:18;97475.13;;;10.88;85.05
75650;BME280;64245;51.282;22.494;2023-04-01T14:33:59;97476.03;;;10.95;87.03
75650;BME280;64245;51.282;22.494;2023-04-01T14:36:46;97474.97;;;11.18;84.61
75650;BME280;64245;51.282;22.494;2023-04-01T14:47:39;97467.88;;;11.31;87.92
75650;BME280;64245;51.282;22.494;2023-04-01T14:50:16;97479.69;;;11.30;88.39
75650;BME280;64245;51.282;22.494;2023-04-01T14:53:23;97483.78;;;11.26;89.60
75650;BME280;64245;51.282;22.494;2023-04-01T14:55:46;97487.78;;;11.30;87.16
75650;BME280;64245;51.282;22.494;2023-04-01T14:58:20;97487.38;;;11.12;86.46
75650;BME280;64245;51.282;22.494;2023-04-01T15:00:52;97493.16;;;11.09;88.44
75650;BME280;64245;51.282;22.494;2023-04-01T15:03:25;97499.63;;;10.79;88.95
75650;BME280;64245;51.282;22.494;2023-04-01T15:06:21;97494.91;;;10.81;89.07
75650;BME280;64245;51.282;22.494;2023-04-01T15:09:06;97487.47;;;10.83;90.20
75650;BME280;64245;51.282;22.494;2023-04-01T15:11:48;97484.34;;;11.00;88.59
75650;BME280;64245;51.282;22.494;2023-04-01T15:14:23;97493.72;;;11.04;89.16
75650;BME280;64245;51.282;22.494;2023-04-01T15:20:10;97494.53;;;10.84;90.36
75650;BME280;64245;51.282;22.494;2023-04-01T15:33:49;97500.25;;;10.59;90.15
75650;BME280;64245;51.282;22.494;2023-04-01T15:39:13;97508.31;;;10.59;90.43
75650;BME280;64245;51.282;22.494;2023-04-01T15:45:11;97513.56;;;10.31;92.22
75650;BME280;64245;51.282;22.494;2023-04-01T15:48:04;97492.00;;;9.87;94.53
75650;BME280;64245;51.282;22.494;2023-04-01T15:50:48;97513.72;;;10.00;94.62
75650;BME280;64245;51.282;22.494;2023-04-01T15:53:45;97494.31;;;9.76;95.50
75650;BME280;64245;51.282;22.494;2023-04-01T15:56:26;97523.06;;;9.90;94.67
75650;BME280;64245;51.282;22.494;2023-04-01T15:59:01;97522.59;;;9.86;95.25
75650;BME280;64245;51.282;22.494;2023-04-01T16:04:40;97507.72;;;9.61;94.91
75650;BME280;64245;51.282;22.494;2023-04-01T16:07:28;97531.09;;;9.75;94.24
75650;BME280;64245;51.282;22.494;2023-04-01T16:10:06;97516.56;;;9.47;93.87
75650;BME280;64245;51.282;22.494;2023-04-01T16:15:42;97534.53;;;9.46;94.50
75650;BME280;64245;51.282;22.494;2023-04-01T16:18:19;97539.03;;;9.31;95.19
75650;BME280;64245;51.282;22.494;2023-04-01T16:21:02;97542.16;;;9.43;95.60
75650;BME280;64245;51.282;22.494;2023-04-01T16:23:46;97547.25;;;9.29;95.40
75650;BME280;64245;51.282;22.494;2023-04-01T16:26:24;97548.53;;;9.19;95.88
75650;BME280;64245;51.282;22.494;2023-04-01T16:29:07;97551.31;;;9.25;95.85
75650;BME280;64245;51.282;22.494;2023-04-01T16:31:50;97540.81;;;9.16;96.75
75650;BME280;64245;51.282;22.494;2023-04-01T16:34:29;97544.66;;;9.21;96.35
75650;BME280;64245;51.282;22.494;2023-04-01T16:37:08;97559.03;;;9.28;96.34
75650;BME280;64245;51.282;22.494;2023-04-01T16:40:16;97555.09;;;9.16;97.47
75650;BME280;64245;51.282;22.494;2023-04-01T16:42:53;97561.91;;;9.04;97.93
75650;BME280;64245;51.282;22.494;2023-04-01T16:45:46;97557.53;;;9.03;97.42
75650;BME280;64245;51.282;22.494;2023-04-01T16:51:15;97557.44;;;8.88;97.39
75650;BME280;64245;51.282;22.494;2023-04-01T16:53:46;97571.25;;;8.77;97.44
75650;BME280;64245;51.282;22.494;2023-04-01T16:56:23;97564.47;;;8.58;98.08
75650;BME280;64245;51.282;22.494;2023-04-01T16:59:16;97581.91;;;8.62;98.57
75650;BME280;64245;51.282;22.494;2023-04-01T17:02:04;97567.22;;;8.42;99.82
75650;BME280;64245;51.282;22.494;2023-04-01T17:04:53;97559.34;;;8.32;100.00
75650;BME280;64245;51.282;22.494;2023-04-01T17:18:50;97588.38;;;8.21;100.00
75650;BME280;64245;51.282;22.494;2023-04-01T17:24:00;97577.81;;;8.11;100.00
75650;BME280;64245;51.282;22.494;2023-04-01T17:29:54;97574.03;;;8.53;100.00
75650;BME280;64245;51.282;22.494;2023-04-01T17:35:27;97578.56;;;8.60;100.00
75650;BME280;64245;51.282;22.494;2023-04-01T17:41:14;97600.53;;;8.56;100.00
75650;BME280;64245;51.282;22.494;2023-04-01T17:44:05;97605.03;;;8.63;99.19
75650;BME280;64245;51.282;22.494;2023-04-01T17:46:41;97608.56;;;8.64;99.56
75650;BME280;64245;51.282;22.494;2023-04-01T17:49:27;97607.75;;;8.55;99.92
75650;BME280;64245;51.282;22.494;2023-04-01T17:54:52;97615.34;;;8.36;100.00
75650;BME280;64245;51.282;22.494;2023-04-01T18:00:02;97628.59;;;8.37;100.00
75650;BME280;64245;51.282;22.494;2023-04-01T18:02:40;97622.03;;;8.31;100.00
75650;BME280;64245;51.282;22.494;2023-04-01T18:08:12;97637.44;;;8.29;100.00
75650;BME280;64245;51.282;22.494;2023-04-01T18:11:05;97639.97;;;8.31;100.00
75650;BME280;64245;51.282;22.494;2023-04-01T18:13:55;97644.34;;;8.24;100.00
75650;BME280;64245;51.282;22.494;2023-04-01T18:24:30;97655.41;;;8.21;100.00
75650;BME280;64245;51.282;22.494;2023-04-01T18:27:04;97658.09;;;8.13;100.00
75650;BME280;64245;51.282;22.494;2023-04-01T18:29:48;97637.47;;;8.13;100.00
75650;BME280;64245;51.282;22.494;2023-04-01T18:35:12;97661.97;;;8.02;100.00
75650;BME280;64245;51.282;22.494;2023-04-01T18:37:47;97652.22;;;7.93;100.00
75650;BME280;64245;51.282;22.494;2023-04-01T18:46:01;97668.66;;;7.98;100.00
75650;BME280;64245;51.282;22.494;2023-04-01T18:48:39;97666.16;;;7.96;100.00
75650;BME280;64245;51.282;22.494;2023-04-01T18:51:24;97654.94;;;7.85;100.00
75650;BME280;64245;51.282;22.494;2023-04-01T18:53:57;97670.00;;;7.94;100.00
75650;BME280;64245;51.282;22.494;2023-04-01T18:56:30;97658.94;;;7.89;100.00
75650;BME280;64245;51.282;22.494;2023-04-01T19:02:02;97664.78;;;7.76;100.00
75650;BME280;64245;51.282;22.494;2023-04-01T19:04:39;97662.63;;;7.80;100.00
75650;BME280;64245;51.282;22.494;2023-04-01T19:09:53;97661.78;;;7.63;100.00
75650;BME280;64245;51.282;22.494;2023-04-01T19:15:22;97685.75;;;7.97;100.00
75650;BME280;64245;51.282;22.494;2023-04-01T19:18:09;97679.88;;;7.85;100.00
75650;BME280;64245;51.282;22.494;2023-04-01T19:20:47;97674.34;;;7.71;100.00
75650;BME280;64245;51.282;22.494;2023-04-01T19:23:38;97689.25;;;7.97;100.00
75650;BME280;64245;51.282;22.494;2023-04-01T19:26:49;97696.13;;;8.08;100.00
75650;BME280;64245;51.282;22.494;2023-04-01T19:35:45;97701.13;;;7.71;100.00
75650;BME280;64245;51.282;22.494;2023-04-01T19:38:28;97694.78;;;7.80;100.00
75650;BME280;64245;51.282;22.494;2023-04-01T19:46:27;97695.78;;;7.95;100.00
75650;BME280;64245;51.282;22.494;2023-04-01T19:49:10;97715.41;;;7.95;100.00
75650;BME280;64245;51.282;22.494;2023-04-01T19:51:52;97705.69;;;7.86;100.00
75650;BME280;64245;51.282;22.494;2023-04-01T19:54:53;97712.91;;;8.02;100.00
75650;BME280;64245;51.282;22.494;2023-04-01T19:57:58;97711.19;;;7.93;100.00
75650;BME280;64245;51.282;22.494;2023-04-01T20:00:47;97711.03;;;7.78;100.00
75650;BME280;64245;51.282;22.494;2023-04-01T20:03:25;97733.66;;;7.92;100.00
75650;BME280;64245;51.282;22.494;2023-04-01T20:06:04;97721.09;;;7.92;100.00
75650;BME280;64245;51.282;22.494;2023-04-01T20:19:07;97734.84;;;8.06;100.00
75650;BME280;64245;51.282;22.494;2023-04-01T20:21:46;97732.31;;;7.96;100.00